WZZ9007 EVRA-EETN
Flight info
| Callsign | WZZ9007 |
|---|---|
| Flight time | 0h 33m |
| Altitude | 26000 |
| Route | VANAG DCT KEMET |
| Aircraft | A20N/M-SDE2E3FGHIRWXY/LB1 |
Departure
| Time | 2026-05-05 17:34 |
|---|---|
| Airport | Riga International Airport (EVRA) |
Arrival
| Time | 2026-05-05 18:08 |
|---|---|
| Airport | Lennart Meri Tallinn Airport (EETN) |
| Time | Latitude | Longitude | Altitude | Speed | Heading |
|---|---|---|---|---|---|
| 2026-05-05 17:18 | 56.92138 | 23.97805 | 46 ft | 0 kts | 134° |
| 2026-05-05 17:30 | 56.92134 | 23.97807 | 46 ft | 0 kts | 185° |
| 2026-05-05 17:30 | 56.92131 | 23.97771 | 46 ft | 9 kts | 267° |
| 2026-05-05 17:30 | 56.92135 | 23.97634 | 46 ft | 11 kts | 275° |
| 2026-05-05 17:30 | 56.92155 | 23.97493 | 46 ft | 12 kts | 330° |
| 2026-05-05 17:31 | 56.92239 | 23.97479 | 46 ft | 12 kts | 8° |
| 2026-05-05 17:31 | 56.92329 | 23.97501 | 46 ft | 13 kts | 7° |
| 2026-05-05 17:31 | 56.92423 | 23.97518 | 46 ft | 13 kts | 4° |
| 2026-05-05 17:31 | 56.92523 | 23.97529 | 46 ft | 14 kts | 3° |
| 2026-05-05 17:32 | 56.92622 | 23.97552 | 46 ft | 14 kts | 10° |
| 2026-05-05 17:32 | 56.92726 | 23.97570 | 46 ft | 15 kts | 5° |
| 2026-05-05 17:32 | 56.92832 | 23.97590 | 46 ft | 15 kts | 5° |
| 2026-05-05 17:32 | 56.92935 | 23.97574 | 46 ft | 15 kts | 316° |
| 2026-05-05 17:33 | 56.92955 | 23.97454 | 46 ft | 0 kts | 275° |
| 2026-05-05 17:33 | 56.92955 | 23.97453 | 46 ft | 0 kts | 275° |
| 2026-05-05 17:33 | 56.92957 | 23.97397 | 46 ft | 10 kts | 274° |
| 2026-05-05 17:33 | 56.92932 | 23.97228 | 46 ft | 16 kts | 200° |
| 2026-05-05 17:34 | 56.92784 | 23.97192 | 46 ft | 44 kts | 186° |
| 2026-05-05 17:34 | 56.92188 | 23.97094 | 46 ft | 125 kts | 185° |
| 2026-05-05 17:34 | 56.91104 | 23.96926 | 165 ft | 175 kts | 184° |
| 2026-05-05 17:34 | 56.89912 | 23.96749 | 983 ft | 174 kts | 185° |
| 2026-05-05 17:35 | 56.88739 | 23.96525 | 1868 ft | 172 kts | 186° |
| 2026-05-05 17:35 | 56.87522 | 23.96288 | 2476 ft | 184 kts | 186° |
| 2026-05-05 17:35 | 56.86201 | 23.96048 | 3026 ft | 201 kts | 183° |
| 2026-05-05 17:35 | 56.84787 | 23.96584 | 3568 ft | 217 kts | 148° |
| 2026-05-05 17:36 | 56.83817 | 23.98710 | 4106 ft | 230 kts | 107° |
| 2026-05-05 17:36 | 56.83815 | 24.01716 | 4561 ft | 249 kts | 66° |
| 2026-05-05 17:36 | 56.84877 | 24.04195 | 5170 ft | 260 kts | 30° |
| 2026-05-05 17:36 | 56.86618 | 24.05203 | 5863 ft | 268 kts | 1° |
| 2026-05-05 17:37 | 56.88478 | 24.05379 | 6729 ft | 275 kts | 359° |
| 2026-05-05 17:37 | 56.90411 | 24.05580 | 7654 ft | 282 kts | 1° |
| 2026-05-05 17:37 | 56.92365 | 24.05887 | 8523 ft | 288 kts | 2° |
| 2026-05-05 17:37 | 56.94376 | 24.06296 | 9351 ft | 294 kts | 3° |
| 2026-05-05 17:38 | 56.96433 | 24.06781 | 10171 ft | 301 kts | 4° |
| 2026-05-05 17:38 | 56.98581 | 24.07332 | 10801 ft | 314 kts | 4° |
| 2026-05-05 17:38 | 57.00782 | 24.07920 | 11268 ft | 331 kts | 4° |
| 2026-05-05 17:38 | 57.03094 | 24.08555 | 11721 ft | 349 kts | 5° |
| 2026-05-05 17:39 | 57.05595 | 24.09251 | 12198 ft | 364 kts | 4° |
| 2026-05-05 17:39 | 57.08163 | 24.09976 | 12858 ft | 372 kts | 4° |
| 2026-05-05 17:39 | 57.10765 | 24.10721 | 13661 ft | 377 kts | 4° |
| 2026-05-05 17:39 | 57.13405 | 24.11477 | 14455 ft | 380 kts | 4° |
| 2026-05-05 17:40 | 57.15998 | 24.12208 | 15159 ft | 385 kts | 3° |
| 2026-05-05 17:40 | 57.18671 | 24.12957 | 15869 ft | 390 kts | 3° |
| 2026-05-05 17:40 | 57.21366 | 24.13716 | 16576 ft | 395 kts | 3° |
| 2026-05-05 17:40 | 57.24079 | 24.14484 | 17259 ft | 399 kts | 2° |
| 2026-05-05 17:41 | 57.26819 | 24.15263 | 17918 ft | 403 kts | 2° |
| 2026-05-05 17:41 | 57.29591 | 24.16055 | 18555 ft | 408 kts | 2° |
| 2026-05-05 17:41 | 57.32397 | 24.16862 | 19177 ft | 412 kts | 2° |
| 2026-05-05 17:41 | 57.35246 | 24.17682 | 19768 ft | 417 kts | 2° |
| 2026-05-05 17:42 | 57.38091 | 24.18500 | 20356 ft | 422 kts | 2° |
| 2026-05-05 17:42 | 57.41006 | 24.19341 | 20951 ft | 426 kts | 2° |
| 2026-05-05 17:42 | 57.43977 | 24.20200 | 21542 ft | 431 kts | 2° |
| 2026-05-05 17:42 | 57.47010 | 24.21079 | 22126 ft | 435 kts | 1° |
| 2026-05-05 17:43 | 57.50005 | 24.21947 | 22691 ft | 439 kts | 1° |
| 2026-05-05 17:43 | 57.53068 | 24.22836 | 23278 ft | 442 kts | 1° |
| 2026-05-05 17:43 | 57.56113 | 24.23726 | 23981 ft | 441 kts | 1° |
| 2026-05-05 17:43 | 57.59110 | 24.24604 | 24699 ft | 439 kts | 1° |
| 2026-05-05 17:44 | 57.62123 | 24.25487 | 25412 ft | 438 kts | 1° |
| 2026-05-05 17:44 | 57.65093 | 24.26354 | 26024 ft | 439 kts | 0° |
| 2026-05-05 17:44 | 57.68126 | 24.27238 | 26577 ft | 442 kts | 0° |
| 2026-05-05 17:44 | 57.71142 | 24.28117 | 26923 ft | 446 kts | 0° |
| 2026-05-05 17:45 | 57.74212 | 24.29021 | 27037 ft | 445 kts | 0° |
| 2026-05-05 17:45 | 57.77245 | 24.29919 | 27116 ft | 444 kts | 0° |
| 2026-05-05 17:45 | 57.80279 | 24.30819 | 27182 ft | 443 kts | 0° |
| 2026-05-05 17:45 | 57.83310 | 24.31716 | 27043 ft | 442 kts | 360° |
| 2026-05-05 17:46 | 57.86319 | 24.32604 | 26946 ft | 442 kts | 360° |
| 2026-05-05 17:46 | 57.89365 | 24.33504 | 26896 ft | 442 kts | 360° |
| 2026-05-05 17:46 | 57.92390 | 24.34399 | 26870 ft | 442 kts | 360° |
| 2026-05-05 17:46 | 57.95409 | 24.35295 | 26850 ft | 442 kts | 360° |
| 2026-05-05 17:47 | 57.98419 | 24.36190 | 26837 ft | 442 kts | 0° |
| 2026-05-05 17:47 | 58.01470 | 24.37098 | 26830 ft | 442 kts | 0° |
| 2026-05-05 17:47 | 58.04497 | 24.38002 | 26826 ft | 442 kts | 0° |
| 2026-05-05 17:47 | 58.07536 | 24.38911 | 26817 ft | 443 kts | 0° |
| 2026-05-05 17:48 | 58.10551 | 24.40053 | 26436 ft | 451 kts | 7° |
| 2026-05-05 17:48 | 58.13574 | 24.41921 | 25836 ft | 459 kts | 12° |
| 2026-05-05 17:48 | 58.16577 | 24.44017 | 25133 ft | 465 kts | 13° |
| 2026-05-05 17:48 | 58.19612 | 24.46159 | 24385 ft | 465 kts | 12° |
| 2026-05-05 17:49 | 58.22610 | 24.48243 | 23636 ft | 464 kts | 12° |
| 2026-05-05 17:49 | 58.25610 | 24.50290 | 22840 ft | 464 kts | 12° |
| 2026-05-05 17:49 | 58.28668 | 24.52350 | 21994 ft | 464 kts | 12° |
| 2026-05-05 17:49 | 58.31684 | 24.54368 | 21199 ft | 463 kts | 12° |
| 2026-05-05 17:50 | 58.34673 | 24.56365 | 20541 ft | 458 kts | 12° |
| 2026-05-05 17:50 | 58.37671 | 24.58372 | 19947 ft | 451 kts | 12° |
| 2026-05-05 17:50 | 58.40596 | 24.60329 | 19396 ft | 444 kts | 11° |
| 2026-05-05 17:50 | 58.43498 | 24.62269 | 18869 ft | 438 kts | 11° |
| 2026-05-05 17:51 | 58.46357 | 24.64182 | 18346 ft | 432 kts | 11° |
| 2026-05-05 17:51 | 58.49187 | 24.66077 | 17810 ft | 427 kts | 12° |
| 2026-05-05 17:51 | 58.52011 | 24.67968 | 17264 ft | 423 kts | 12° |
| 2026-05-05 17:51 | 58.54769 | 24.69818 | 16730 ft | 418 kts | 12° |
| 2026-05-05 17:52 | 58.57510 | 24.71663 | 16186 ft | 414 kts | 12° |
| 2026-05-05 17:52 | 58.60182 | 24.73465 | 15654 ft | 410 kts | 12° |
| 2026-05-05 17:52 | 58.62882 | 24.75289 | 15115 ft | 406 kts | 12° |
| 2026-05-05 17:52 | 58.65516 | 24.77073 | 14589 ft | 402 kts | 12° |
| 2026-05-05 17:53 | 58.68114 | 24.78839 | 14068 ft | 398 kts | 13° |
| 2026-05-05 17:53 | 58.70686 | 24.80590 | 13557 ft | 393 kts | 13° |
| 2026-05-05 17:53 | 58.73257 | 24.82344 | 13042 ft | 389 kts | 13° |
| 2026-05-05 17:53 | 58.75771 | 24.84056 | 12531 ft | 385 kts | 13° |
| 2026-05-05 17:54 | 58.78297 | 24.85781 | 12012 ft | 382 kts | 13° |
| 2026-05-05 17:54 | 58.80776 | 24.87477 | 11494 ft | 378 kts | 13° |
| 2026-05-05 17:54 | 58.83235 | 24.89168 | 11036 ft | 372 kts | 13° |
| 2026-05-05 17:54 | 58.85633 | 24.90822 | 10663 ft | 363 kts | 13° |
| 2026-05-05 17:55 | 58.87948 | 24.92418 | 10352 ft | 353 kts | 14° |
| 2026-05-05 17:55 | 58.90230 | 24.94001 | 10177 ft | 338 kts | 13° |
| 2026-05-05 17:55 | 58.92382 | 24.95486 | 10033 ft | 325 kts | 13° |
| 2026-05-05 17:55 | 58.94455 | 24.96916 | 9910 ft | 311 kts | 14° |
| 2026-05-05 17:56 | 58.96456 | 24.98300 | 9731 ft | 302 kts | 13° |
| 2026-05-05 17:56 | 58.98428 | 24.99650 | 9355 ft | 301 kts | 14° |
| 2026-05-05 17:56 | 59.00403 | 25.01003 | 8927 ft | 302 kts | 14° |
| 2026-05-05 17:56 | 59.02359 | 25.02351 | 8540 ft | 298 kts | 14° |
| 2026-05-05 17:57 | 59.04285 | 25.03686 | 8194 ft | 293 kts | 15° |
| 2026-05-05 17:57 | 59.06183 | 25.05005 | 7862 ft | 289 kts | 15° |
| 2026-05-05 17:57 | 59.08074 | 25.06316 | 7535 ft | 285 kts | 15° |
| 2026-05-05 17:57 | 59.09914 | 25.07601 | 7217 ft | 281 kts | 15° |
| 2026-05-05 17:58 | 59.11728 | 25.08873 | 6896 ft | 276 kts | 15° |
| 2026-05-05 17:58 | 59.13537 | 25.10137 | 6576 ft | 273 kts | 15° |
| 2026-05-05 17:58 | 59.15321 | 25.11392 | 6258 ft | 269 kts | 15° |
| 2026-05-05 17:58 | 59.17021 | 25.12588 | 5955 ft | 267 kts | 15° |
| 2026-05-05 17:59 | 59.18759 | 25.13804 | 5643 ft | 263 kts | 15° |
| 2026-05-05 17:59 | 59.20483 | 25.15006 | 5334 ft | 261 kts | 15° |
| 2026-05-05 17:59 | 59.22166 | 25.16180 | 5029 ft | 259 kts | 15° |
| 2026-05-05 17:59 | 59.23851 | 25.17362 | 4725 ft | 257 kts | 15° |
| 2026-05-05 18:00 | 59.25545 | 25.18554 | 4413 ft | 256 kts | 15° |
| 2026-05-05 18:00 | 59.27187 | 25.19711 | 4112 ft | 254 kts | 15° |
| 2026-05-05 18:00 | 59.28840 | 25.20883 | 3807 ft | 253 kts | 15° |
| 2026-05-05 18:00 | 59.30492 | 25.22052 | 3568 ft | 248 kts | 15° |
| 2026-05-05 18:01 | 59.32082 | 25.23154 | 3492 ft | 238 kts | 11° |
| 2026-05-05 18:01 | 59.33677 | 25.23756 | 3418 ft | 227 kts | 358° |
| 2026-05-05 18:01 | 59.35181 | 25.23857 | 3391 ft | 213 kts | 354° |
| 2026-05-05 18:01 | 59.36663 | 25.23868 | 3365 ft | 211 kts | 354° |
| 2026-05-05 18:02 | 59.38089 | 25.23881 | 3283 ft | 196 kts | 353° |
| 2026-05-05 18:02 | 59.39436 | 25.23849 | 3181 ft | 191 kts | 342° |
| 2026-05-05 18:02 | 59.40541 | 25.22706 | 3044 ft | 178 kts | 303° |
| 2026-05-05 18:02 | 59.41025 | 25.20543 | 2852 ft | 173 kts | 279° |
| 2026-05-05 18:03 | 59.41163 | 25.18227 | 2654 ft | 171 kts | 274° |
| 2026-05-05 18:03 | 59.41245 | 25.15911 | 2478 ft | 170 kts | 272° |
| 2026-05-05 18:03 | 59.41286 | 25.13587 | 2493 ft | 171 kts | 271° |
| 2026-05-05 18:03 | 59.41301 | 25.11254 | 2521 ft | 171 kts | 270° |
| 2026-05-05 18:04 | 59.41305 | 25.09010 | 2469 ft | 157 kts | 270° |
| 2026-05-05 18:04 | 59.41304 | 25.06957 | 2225 ft | 145 kts | 270° |
| 2026-05-05 18:04 | 59.41301 | 25.05058 | 2025 ft | 132 kts | 270° |
| 2026-05-05 18:04 | 59.41301 | 25.03330 | 1827 ft | 125 kts | 269° |
| 2026-05-05 18:05 | 59.41299 | 25.01619 | 1667 ft | 121 kts | 270° |
| 2026-05-05 18:05 | 59.41300 | 25.00014 | 1498 ft | 118 kts | 269° |
| 2026-05-05 18:05 | 59.41300 | 24.98404 | 1348 ft | 117 kts | 270° |
| 2026-05-05 18:05 | 59.41303 | 24.96814 | 1195 ft | 117 kts | 269° |
| 2026-05-05 18:06 | 59.41305 | 24.95219 | 1035 ft | 116 kts | 270° |
| 2026-05-05 18:06 | 59.41306 | 24.94154 | 929 ft | 116 kts | 270° |
| 2026-05-05 18:06 | 59.41309 | 24.92050 | 713 ft | 115 kts | 270° |
| 2026-05-05 18:06 | 59.41310 | 24.90477 | 554 ft | 115 kts | 270° |
| 2026-05-05 18:07 | 59.41313 | 24.88913 | 393 ft | 115 kts | 271° |
| 2026-05-05 18:07 | 59.41327 | 24.87337 | 226 ft | 114 kts | 270° |
| 2026-05-05 18:07 | 59.41324 | 24.85782 | 142 ft | 112 kts | 270° |
| 2026-05-05 18:07 | 59.41323 | 24.84779 | 141 ft | 52 kts | 270° |
| 2026-05-05 18:08 | 59.41318 | 24.84116 | 141 ft | 44 kts | 274° |
| 2026-05-05 18:08 | 59.41326 | 24.83559 | 141 ft | 38 kts | 270° |
| 2026-05-05 18:08 | 59.41327 | 24.83059 | 141 ft | 36 kts | 270° |
| 2026-05-05 18:08 | 59.41328 | 24.82486 | 141 ft | 50 kts | 270° |
| 2026-05-05 18:09 | 59.41329 | 24.81822 | 141 ft | 46 kts | 270° |
| 2026-05-05 18:09 | 59.41330 | 24.81218 | 141 ft | 42 kts | 270° |
| 2026-05-05 18:09 | 59.41334 | 24.80741 | 141 ft | 23 kts | 283° |
| 2026-05-05 18:09 | 59.41429 | 24.80493 | 141 ft | 21 kts | 316° |
| 2026-05-05 18:10 | 59.41527 | 24.80448 | 141 ft | 8 kts | 296° |
| 2026-05-05 18:10 | 59.41528 | 24.80321 | 141 ft | 9 kts | 265° |
| 2026-05-05 18:10 | 59.41528 | 24.80222 | 141 ft | 3 kts | 328° |
| 2026-05-05 18:10 | 59.41553 | 24.80217 | 141 ft | 4 kts | 3° |
| 2026-05-05 18:11 | 59.41584 | 24.80218 | 141 ft | 0 kts | 359° |